Woolgoolga, Australia
Current Conditions -  °F | °C
As of 5:34 AM on Thursday 27 Nov 2014 (Local Time) from YCFS Reporting Station
Overcast Overcast  
Wind Chill: 66°   Ceiling: 1300
Heat Index: 66°   Visibility: 4mi
Dew Point: 66°   Wind: 5mph
Humidity: 100%   Direction: 270°W
Pressure: 29.94"   Gusts: NA
Location:  30.11°S, 153.19°E
Report Text: YCFS 261834Z AUTO 27004KT 7000 // SCT006 OVC013 19/19 Q1014
Loading
Personal Weather Stations






























Interactive Weather Map New forecast layout! Learn more

10-Day Weather Forecast

Advertisements
Track Severe Weather on mobile